Time;durP1;ratioP1;P1;durP2;ratioP2;P2;SDS_P1;SDS_P2;PMS_P1;PMS_P2;Temp;Humidity;BMP_temperature;BMP_pressure;BME280_temperature;BME280_humidity;BME280_pressure;Samples;Min_cycle;Max_cycle;Signal;HPM_P1;HPM_P2
2022/03/14 00:02:21;;;;;;;2.35;2.08;;;13.10;95.00;;;;;;4972906;28;20197;-78
2022/03/14 00:04:51;;;;;;;2.53;1.90;;;13.00;95.40;;;;;;4971982;28;20701;-78
2022/03/14 00:07:19;;;;;;;3.85;2.42;;;13.00;95.70;;;;;;4987494;28;20217;-78
2022/03/14 00:09:46;;;;;;;2.38;2.00;;;13.00;95.60;;;;;;4991238;28;20211;-78
2022/03/14 00:12:19;;;;;;;3.03;2.10;;;13.10;95.40;;;;;;4970227;28;20212;-78
2022/03/14 00:14:47;;;;;;;2.35;2.15;;;13.10;95.50;;;;;;4989140;28;20208;-79
2022/03/14 00:17:15;;;;;;;3.28;2.45;;;13.20;95.50;;;;;;4975846;28;20221;-79
2022/03/14 00:19:43;;;;;;;2.70;2.50;;;13.20;95.30;;;;;;4975484;28;20205;-78
2022/03/14 00:22:11;;;;;;;2.60;2.40;;;13.30;95.30;;;;;;4981528;28;20201;-79
2022/03/14 00:24:42;;;;;;;3.50;2.55;;;13.30;95.30;;;;;;4987411;28;20197;-78
2022/03/14 00:27:10;;;;;;;2.30;2.10;;;13.40;94.90;;;;;;4971419;28;20698;-78
2022/03/14 00:29:38;;;;;;;3.45;2.95;;;13.40;94.70;;;;;;4970851;28;20224;-79
2022/03/14 00:32:06;;;;;;;3.38;2.83;;;13.40;94.70;;;;;;4973767;28;20205;-78
2022/03/14 00:34:34;;;;;;;3.28;2.85;;;13.30;95.00;;;;;;4949448;28;20209;-78
2022/03/14 00:37:03;;;;;;;3.65;2.95;;;13.30;95.00;;;;;;4969940;28;20212;-80
2022/03/14 00:39:30;;;;;;;3.47;2.90;;;13.30;94.80;;;;;;4966592;28;20201;-79
2022/03/14 00:41:58;;;;;;;4.30;2.95;;;13.30;94.70;;;;;;4949979;28;20206;-79
2022/03/14 00:44:25;;;;;;;4.18;3.20;;;13.20;95.40;;;;;;4965651;28;20193;-78
2022/03/14 00:46:52;;;;;;;3.90;2.88;;;13.10;95.90;;;;;;4958008;28;20204;-79
2022/03/14 00:49:20;;;;;;;3.50;3.20;;;13.10;95.90;;;;;;4965456;28;20236;-78
2022/03/14 00:51:47;;;;;;;4.40;2.90;;;13.10;95.90;;;;;;4960296;28;20198;-79
2022/03/14 00:54:16;;;;;;;3.72;3.10;;;13.10;95.90;;;;;;4975837;28;20205;-78
2022/03/14 00:56:44;;;;;;;3.25;2.95;;;13.20;95.80;;;;;;4974456;28;20193;-78
2022/03/14 00:59:11;;;;;;;3.53;3.00;;;13.20;95.40;;;;;;4972556;28;20218;-78
2022/03/14 01:01:38;;;;;;;3.35;3.05;;;13.20;95.30;;;;;;4962981;28;20205;-78
2022/03/14 01:04:06;;;;;;;2.88;2.67;;;13.10;95.40;;;;;;4960548;28;20571;-79
2022/03/14 01:06:34;;;;;;;4.10;3.08;;;13.20;95.60;;;;;;4955557;28;20201;-78
2022/03/14 01:09:11;;;;;;;3.58;3.25;;;13.20;95.80;;;;;;4970464;28;20224;-79
2022/03/14 01:11:39;;;;;;;3.65;3.35;;;13.20;95.50;;;;;;4987926;28;20662;-79
2022/03/14 01:14:07;;;;;;;4.43;3.60;;;13.10;95.70;;;;;;4956061;28;20205;-79
2022/03/14 01:16:35;;;;;;;4.25;3.75;;;13.10;95.60;;;;;;4955334;28;20216;-78
2022/03/14 01:19:03;;;;;;;5.38;4.10;;;12.90;96.00;;;;;;4976910;28;20216;-78
2022/03/14 01:21:38;;;;;;;5.28;3.67;;;12.80;96.50;;;;;;4957667;28;20212;-78
2022/03/14 01:24:06;;;;;;;3.97;3.58;;;12.80;96.90;;;;;;4966200;28;20196;-78
2022/03/14 01:26:34;;;;;;;4.70;4.10;;;12.90;96.80;;;;;;4957324;28;20205;-78
2022/03/14 01:29:04;;;;;;;5.35;3.97;;;13.00;96.50;;;;;;4971068;28;20230;-78
2022/03/14 01:31:31;;;;;;;4.20;3.78;;;13.10;96.60;;;;;;4984390;28;20198;-79
2022/03/14 01:33:59;;;;;;;4.20;3.80;;;12.90;96.90;;;;;;4963371;28;20201;-79
2022/03/14 01:36:35;;;;;;;4.45;4.05;;;13.00;97.20;;;;;;4970487;28;20208;-78
2022/03/14 01:39:03;;;;;;;4.70;4.13;;;13.00;97.80;;;;;;4971705;28;20217;-78
2022/03/14 01:41:31;;;;;;;4.85;3.80;;;13.00;99.80;;;;;;4989816;28;20201;-78
2022/03/14 01:44:01;;;;;;;4.35;3.90;;;12.90;99.90;;;;;;4972570;28;20200;-78
2022/03/14 01:46:31;;;;;;;4.55;3.88;;;12.80;99.90;;;;;;4972666;28;20212;-78
2022/03/14 01:49:00;;;;;;;4.30;3.90;;;12.90;99.90;;;;;;4979504;28;20288;-78
2022/03/14 01:51:27;;;;;;;4.85;4.03;;;12.90;99.90;;;;;;4988397;28;20552;-78
2022/03/14 01:53:55;;;;;;;5.30;4.20;;;13.00;99.90;;;;;;4977148;28;20193;-78
2022/03/14 01:56:23;;;;;;;4.88;4.40;;;13.00;99.90;;;;;;4976907;28;20204;-79
2022/03/14 01:58:52;;;;;;;3.95;3.35;;;12.90;99.90;;;;;;4974446;28;20243;-78
2022/03/14 02:01:20;;;;;;;4.60;4.20;;;12.80;99.90;;;;;;4970940;28;20655;-78
2022/03/14 02:03:51;;;;;;;5.80;4.05;;;12.60;99.90;;;;;;4973982;28;20555;-79
2022/03/14 02:06:18;;;;;;;4.88;3.88;;;12.50;99.90;;;;;;4979765;28;20205;-80
2022/03/14 02:08:46;;;;;;;3.83;3.42;;;12.60;99.90;;;;;;4968865;28;20360;-78
2022/03/14 02:11:14;;;;;;;4.50;3.97;;;12.40;99.90;;;;;;4971211;28;20205;-80
2022/03/14 02:13:41;;;;;;;4.00;3.60;;;12.20;99.90;;;;;;4984814;28;20216;-78
2022/03/14 02:16:08;;;;;;;4.45;3.72;;;12.20;99.90;;;;;;4986599;28;20208;-78
2022/03/14 02:18:43;;;;;;;4.30;3.90;;;12.30;99.90;;;;;;4977644;28;20229;-78
2022/03/14 02:21:13;;;;;;;4.90;4.30;;;12.30;99.90;;;;;;4985934;28;20196;-78
2022/03/14 02:23:41;;;;;;;4.85;4.18;;;12.20;99.90;;;;;;4995273;28;20208;-78
2022/03/14 02:26:08;;;;;;;4.72;4.05;;;12.30;99.90;;;;;;4978548;28;20201;-78
2022/03/14 02:28:36;;;;;;;5.72;4.22;;;12.30;99.90;;;;;;4980037;28;20235;-78
2022/03/14 02:31:04;;;;;;;5.53;4.32;;;12.30;99.90;;;;;;4977576;28;20207;-77
2022/03/14 02:33:32;;;;;;;4.95;4.07;;;12.20;99.90;;;;;;4995011;28;20192;-79
2022/03/14 02:36:00;;;;;;;5.10;4.10;;;12.10;99.90;;;;;;5004518;28;20211;-78
2022/03/14 02:38:28;;;;;;;6.85;4.78;;;12.20;99.90;;;;;;4970322;28;20235;-78
2022/03/14 02:40:56;;;;;;;4.85;4.28;;;12.30;99.90;;;;;;4983126;28;20223;-77
2022/03/14 02:43:24;;;;;;;6.15;4.32;;;12.30;99.90;;;;;;4976379;28;20207;-79
2022/03/14 02:45:53;;;;;;;4.60;4.15;;;12.30;99.90;;;;;;5007052;28;20204;-77
2022/03/14 02:48:23;;;;;;;4.72;4.25;;;12.50;99.90;;;;;;4987045;28;20216;-79
2022/03/14 02:50:53;;;;;;;5.00;4.43;;;12.60;99.90;;;;;;4994248;28;20209;-79
2022/03/14 02:53:21;;;;;;;5.63;4.70;;;12.60;99.90;;;;;;4973870;28;20200;-78
2022/03/14 02:55:50;;;;;;;5.75;5.15;;;12.40;99.90;;;;;;5005877;28;20207;-78
2022/03/14 02:58:20;;;;;;;4.93;4.43;;;12.10;99.90;;;;;;4989203;28;20223;-79
2022/03/14 03:00:47;;;;;;;5.43;4.93;;;12.10;99.90;;;;;;4980568;28;20201;-78
2022/03/14 03:03:15;;;;;;;6.10;5.13;;;12.00;99.90;;;;;;4972123;28;20216;-77
2022/03/14 03:05:43;;;;;;;7.88;6.25;;;11.90;99.90;;;;;;4974251;28;20204;-78
2022/03/14 03:08:11;;;;;;;6.18;5.53;;;11.90;99.90;;;;;;4997056;28;20305;-78
2022/03/14 03:10:41;;;;;;;6.47;5.88;;;11.70;99.90;;;;;;4989028;28;20227;-78
2022/03/14 03:13:29;;;;;;;6.75;5.70;;;11.70;99.90;;;;;;4993338;28;20207;-78
2022/03/14 03:15:56;;;;;;;6.57;5.70;;;11.60;99.90;;;;;;4985619;28;20771;-78
2022/03/14 03:18:24;;;;;;;6.43;5.72;;;11.40;99.90;;;;;;4976783;28;20224;-78
2022/03/14 03:20:51;;;;;;;7.13;5.40;;;11.40;99.90;;;;;;4976199;28;20203;-77
2022/03/14 03:23:19;;;;;;;7.97;5.85;;;11.30;99.90;;;;;;4989573;28;20231;-78
2022/03/14 03:25:46;;;;;;;7.70;5.97;;;11.20;99.90;;;;;;4983290;28;20201;-78
2022/03/14 03:28:15;;;;;;;9.90;6.70;;;11.20;99.90;;;;;;4987086;28;20228;-79
2022/03/14 03:30:44;;;;;;;6.68;6.03;;;11.10;99.90;;;;;;4986909;28;20212;-78
2022/03/14 03:33:11;;;;;;;8.35;7.20;;;11.10;99.90;;;;;;4975659;28;20200;-77
2022/03/14 03:35:38;;;;;;;6.32;5.55;;;11.10;99.90;;;;;;4974490;28;20214;-78
2022/03/14 03:38:06;;;;;;;7.03;6.33;;;10.90;99.90;;;;;;4989811;28;20220;-78
2022/03/14 03:40:33;;;;;;;8.03;6.70;;;11.00;99.90;;;;;;4986854;28;20204;-78
2022/03/14 03:43:15;;;;;;;8.07;7.13;;;11.00;99.90;;;;;;4976315;28;20215;-79
2022/03/14 03:45:44;;;;;;;9.07;7.17;;;10.90;99.90;;;;;;4982027;28;20200;-78
2022/03/14 03:48:12;;;;;;;7.77;6.83;;;10.90;99.90;;;;;;4987114;28;20229;-77
2022/03/14 03:50:39;;;;;;;7.37;6.67;;;10.90;99.90;;;;;;4969605;28;20217;-79
2022/03/14 03:53:07;;;;;;;7.87;6.50;;;10.80;99.90;;;;;;4986715;28;20200;-78
2022/03/14 03:55:35;;;;;;;7.83;6.97;;;10.80;99.90;;;;;;5000426;28;20208;-77
2022/03/14 03:58:04;;;;;;;7.63;6.83;;;10.80;99.90;;;;;;4983724;28;20225;-78
2022/03/14 04:00:53;;;;;;;8.67;6.93;;;10.80;99.90;;;;;;4972982;28;20214;-78
2022/03/14 04:03:21;;;;;;;8.53;6.47;;;10.70;99.90;;;;;;4969923;28;20690;-78
2022/03/14 04:05:48;;;;;;;6.67;5.97;;;10.70;99.90;;;;;;4971460;28;20547;-77
2022/03/14 04:08:16;;;;;;;7.27;6.57;;;10.60;99.90;;;;;;4974698;28;20227;-78
2022/03/14 04:10:44;;;;;;;7.80;6.23;;;10.60;99.90;;;;;;4994669;28;20747;-78
2022/03/14 04:13:19;;;;;;;6.90;5.57;;;10.60;99.90;;;;;;4997059;28;20196;-78
2022/03/14 04:15:50;;;;;;;6.77;6.07;;;10.60;99.90;;;;;;5006199;28;20668;-78
2022/03/14 04:18:24;;;;;;;7.73;6.20;;;10.60;99.90;;;;;;4979111;28;20224;-78
2022/03/14 04:20:53;;;;;;;7.27;6.37;;;10.40;99.90;;;;;;4976197;28;20193;-77
2022/03/14 04:23:21;;;;;;;8.10;6.27;;;10.60;99.90;;;;;;4981129;28;20191;-78
2022/03/14 04:25:50;;;;;;;8.27;6.87;;;10.60;99.90;;;;;;4979055;28;20200;-78
2022/03/14 04:28:17;;;;;;;7.73;6.00;;;10.60;99.90;;;;;;4978892;28;20586;-78
2022/03/14 04:30:45;;;;;;;9.27;6.40;;;10.50;99.90;;;;;;4979356;28;20220;-77
2022/03/14 04:33:12;;;;;;;7.50;6.00;;;10.50;99.90;;;;;;4987332;28;20193;-78
2022/03/14 04:35:42;;;;;;;8.23;6.77;;;10.50;99.90;;;;;;4993247;28;20193;-78
2022/03/14 04:38:10;;;;;;;7.17;6.07;;;10.50;99.90;;;;;;4992400;28;20231;-78
2022/03/14 04:40:48;;;;;;;7.67;6.40;;;10.50;99.90;;;;;;4989144;28;20195;-78
2022/03/14 04:43:15;;;;;;;8.77;6.00;;;10.60;99.90;;;;;;5011170;28;20200;-78
2022/03/14 04:45:43;;;;;;;7.17;6.00;;;10.50;99.90;;;;;;4974359;28;20205;-77
2022/03/14 04:48:11;;;;;;;9.57;6.03;;;10.40;99.90;;;;;;5004070;28;20228;-78
2022/03/14 04:50:39;;;;;;;6.70;6.00;;;10.40;99.90;;;;;;4987719;28;20232;-78
2022/03/14 04:53:08;;;;;;;6.73;5.73;;;10.40;99.90;;;;;;4977422;28;20208;-77
2022/03/14 04:55:36;;;;;;;8.37;5.77;;;10.30;99.90;;;;;;4993100;28;20646;-77
2022/03/14 04:58:03;;;;;;;6.77;5.60;;;10.30;99.90;;;;;;4987212;28;20216;-77
2022/03/14 05:00:32;;;;;;;7.40;5.97;;;10.30;99.90;;;;;;4994966;28;20207;-77
2022/03/14 05:03:01;;;;;;;7.27;5.60;;;10.40;99.90;;;;;;4978659;28;20204;-80
2022/03/14 05:05:33;;;;;;;6.40;5.80;;;10.30;99.90;;;;;;4974974;28;20570;-77
2022/03/14 05:08:01;;;;;;;7.47;5.47;;;10.20;99.90;;;;;;4991773;28;20216;-78
2022/03/14 05:10:30;;;;;;;6.80;5.47;;;10.30;99.90;;;;;;4992436;28;20220;-78
2022/03/14 05:12:59;;;;;;;5.90;4.97;;;10.30;99.90;;;;;;4977061;28;20200;-78
2022/03/14 05:15:29;;;;;;;6.87;5.40;;;10.40;99.90;;;;;;5002239;28;20201;-77
2022/03/14 05:17:57;;;;;;;7.73;5.03;;;10.40;99.90;;;;;;4976066;28;20235;-78
2022/03/14 05:20:25;;;;;;;7.27;5.53;;;10.60;99.90;;;;;;4992737;28;20200;-78
2022/03/14 05:22:53;;;;;;;6.10;5.50;;;10.50;99.90;;;;;;4980765;28;20692;-78
2022/03/14 05:25:38;;;;;;;5.63;5.03;;;10.40;99.90;;;;;;4982110;28;20207;-78
2022/03/14 05:28:05;;;;;;;7.07;5.27;;;10.50;99.90;;;;;;4991030;28;20216;-78
2022/03/14 05:30:33;;;;;;;6.20;5.60;;;10.40;99.90;;;;;;4952681;28;20220;-77
2022/03/14 05:33:03;;;;;;;5.77;5.13;;;10.40;99.90;;;;;;4968441;28;20202;-77
2022/03/14 05:35:30;;;;;;;6.07;5.47;;;10.20;99.90;;;;;;4972804;28;20231;-78
2022/03/14 05:37:58;;;;;;;6.53;5.20;;;10.10;99.90;;;;;;4962914;28;20224;-78
2022/03/14 05:40:25;;;;;;;6.93;6.13;;;10.00;99.90;;;;;;4967489;28;20193;-78
2022/03/14 05:42:54;;;;;;;6.50;5.90;;;10.10;99.90;;;;;;4963270;28;20198;-77
2022/03/14 05:45:22;;;;;;;7.80;6.73;;;10.20;99.90;;;;;;4968603;28;20197;-77
2022/03/14 05:47:49;;;;;;;7.13;6.43;;;10.20;99.90;;;;;;4969124;28;20226;-77
2022/03/14 05:50:17;;;;;;;7.23;6.53;;;10.20;99.90;;;;;;4954924;28;20202;-77
2022/03/14 05:52:50;;;;;;;8.23;7.23;;;10.10;99.90;;;;;;4955703;28;20226;-78
2022/03/14 05:55:17;;;;;;;8.10;7.27;;;10.10;99.90;;;;;;4955142;28;20205;-77
2022/03/14 05:57:45;;;;;;;8.00;7.20;;;10.20;99.90;;;;;;4969039;28;20216;-78
2022/03/14 06:00:16;;;;;;;10.20;8.80;;;10.30;99.90;;;;;;4974074;28;20211;-77
2022/03/14 06:02:46;;;;;;;9.40;8.43;;;10.10;99.90;;;;;;4974618;28;20200;-75
2022/03/14 06:05:14;;;;;;;11.93;9.37;;;10.10;99.90;;;;;;4969180;28;20205;-76
2022/03/14 06:07:42;;;;;;;12.80;9.80;;;10.20;99.90;;;;;;4955507;28;20695;-76
2022/03/14 06:10:13;;;;;;;12.83;9.97;;;10.20;99.90;;;;;;4967546;28;20210;-76
2022/03/14 06:12:41;;;;;;;10.93;9.83;;;10.30;99.90;;;;;;4968661;28;20197;-76
2022/03/14 06:15:57;;;;;;;11.87;10.67;;;10.30;99.90;;;;;;4959937;28;20560;-76
2022/03/14 06:18:26;;;;;;;12.03;10.83;;;10.10;99.90;;;;;;4970234;28;20217;-76
2022/03/14 06:20:53;;;;;;;13.43;11.87;;;10.20;99.90;;;;;;4969161;28;20204;-76
2022/03/14 06:23:20;;;;;;;18.33;12.83;;;10.00;99.90;;;;;;4973654;28;20197;-76
2022/03/14 06:25:50;;;;;;;14.27;12.80;;;10.00;99.90;;;;;;4975633;28;20198;-76
2022/03/14 06:28:17;;;;;;;15.93;14.17;;;10.00;99.90;;;;;;4966269;28;20221;-76
2022/03/14 06:30:44;;;;;;;15.47;13.73;;;10.00;99.90;;;;;;4967763;28;20232;-76
2022/03/14 06:33:12;;;;;;;17.13;14.23;;;10.00;99.90;;;;;;4953582;28;20212;-76
2022/03/14 06:35:41;;;;;;;16.47;14.43;;;9.90;99.90;;;;;;4959237;28;20220;-76
2022/03/14 06:38:09;;;;;;;17.87;14.13;;;10.00;99.90;;;;;;4961396;28;20227;-76
2022/03/14 06:40:37;;;;;;;13.67;12.03;;;9.90;99.90;;;;;;4950423;28;20216;-75
2022/03/14 06:43:05;;;;;;;13.63;12.13;;;9.80;99.90;;;;;;4950020;28;20204;-76
2022/03/14 06:45:32;;;;;;;13.77;12.27;;;9.90;99.90;;;;;;4987273;28;20208;-76
2022/03/14 06:48:00;;;;;;;14.50;11.27;;;9.80;99.90;;;;;;4954944;28;20224;-77
2022/03/14 06:50:27;;;;;;;13.23;11.07;;;9.80;99.90;;;;;;4972197;28;20192;-75
2022/03/14 06:52:57;;;;;;;12.63;10.30;;;9.60;99.90;;;;;;4972165;28;20213;-75
2022/03/14 06:55:24;;;;;;;10.77;9.67;;;9.50;99.90;;;;;;4936455;29;20193;-76
2022/03/14 06:58:00;;;;;;;14.13;11.60;;;9.60;99.90;;;;;;4947790;28;20225;-76
2022/03/14 07:00:28;;;;;;;12.73;10.87;;;9.70;99.90;;;;;;4963443;28;20205;-76
2022/03/14 07:02:57;;;;;;;12.50;11.17;;;9.70;99.90;;;;;;4970695;28;20283;-75
2022/03/14 07:05:26;;;;;;;14.20;11.47;;;9.80;99.90;;;;;;4967307;28;21756;-75
2022/03/14 07:07:54;;;;;;;13.23;10.97;;;9.80;99.90;;;;;;4946844;28;20235;-76
2022/03/14 07:10:24;;;;;;;12.83;11.47;;;9.80;99.90;;;;;;4969117;28;20201;-76
2022/03/14 07:13:00;;;;;;;12.67;11.33;;;9.80;99.90;;;;;;4970568;28;20229;-75
2022/03/14 07:15:28;;;;;;;12.73;11.10;;;9.80;99.90;;;;;;4973711;28;20200;-76
2022/03/14 07:17:55;;;;;;;12.83;11.33;;;9.80;99.90;;;;;;4955620;28;20224;-76
2022/03/14 07:20:23;;;;;;;16.40;12.47;;;9.60;99.90;;;;;;4978456;28;20201;-76
2022/03/14 07:22:52;;;;;;;12.90;11.60;;;9.50;99.90;;;;;;4962823;28;20201;-76
2022/03/14 07:25:26;;;;;;;13.40;11.53;;;9.50;99.90;;;;;;4955763;28;20783;-76
2022/03/14 07:27:54;;;;;;;14.73;11.83;;;9.60;99.90;;;;;;4971282;28;20495;-75
2022/03/14 07:30:22;;;;;;;15.57;12.33;;;9.60;99.90;;;;;;4968764;28;20686;-76
2022/03/14 07:32:50;;;;;;;14.53;11.50;;;9.50;99.90;;;;;;4980302;28;20220;-75
2022/03/14 07:35:17;;;;;;;13.23;10.37;;;9.70;99.90;;;;;;4987126;28;20200;-77
2022/03/14 07:37:45;;;;;;;12.27;9.63;;;9.60;99.90;;;;;;4969331;28;20236;-76
2022/03/14 07:40:14;;;;;;;11.57;9.37;;;9.60;99.90;;;;;;4984623;28;20208;-76
2022/03/14 07:42:45;;;;;;;12.13;9.50;;;9.60;99.90;;;;;;4973009;28;20197;-76
2022/03/14 07:45:16;;;;;;;13.10;10.07;;;9.70;99.90;;;;;;4994572;28;20211;-76
2022/03/14 07:47:44;;;;;;;12.20;9.27;;;9.60;99.90;;;;;;4987312;28;20834;-76
2022/03/14 07:50:15;;;;;;;11.63;8.27;;;9.40;99.90;;;;;;4989380;28;20766;-76
2022/03/14 07:52:57;;;;;;;11.70;8.83;;;9.40;99.90;;;;;;4994092;28;20200;-76
2022/03/14 07:55:25;;;;;;;9.60;8.60;;;9.40;99.90;;;;;;4969399;28;20654;-76
2022/03/14 07:57:54;;;;;;;10.83;8.67;;;9.40;99.90;;;;;;4987210;28;20235;-76
2022/03/14 08:00:21;;;;;;;14.17;9.43;;;9.40;99.90;;;;;;4977212;28;20197;-76
2022/03/14 08:02:49;;;;;;;10.73;8.57;;;9.50;99.90;;;;;;4981954;28;20193;-75
2022/03/14 08:05:24;;;;;;;13.40;8.90;;;9.50;99.90;;;;;;4987400;28;20208;-76
2022/03/14 08:07:52;;;;;;;10.90;8.93;;;9.40;99.90;;;;;;4986771;28;20220;-76
2022/03/14 08:10:19;;;;;;;10.23;8.50;;;9.60;99.90;;;;;;4991771;28;20196;-76
2022/03/14 08:12:49;;;;;;;12.43;8.30;;;9.60;99.90;;;;;;4992325;28;20213;-76
2022/03/14 08:15:25;;;;;;;11.20;8.87;;;9.70;99.90;;;;;;4978400;28;20213;-76
2022/03/14 08:18:00;;;;;;;11.63;8.10;;;9.70;99.90;;;;;;4995019;28;20216;-76
2022/03/14 08:20:29;;;;;;;16.70;8.87;;;9.80;99.90;;;;;;4978206;28;20196;-76
2022/03/14 08:22:59;;;;;;;10.43;8.43;;;9.60;99.90;;;;;;4978498;28;20570;-76
2022/03/14 08:25:30;;;;;;;10.53;8.40;;;9.70;99.90;;;;;;4978173;28;20212;-76
2022/03/14 08:27:58;;;;;;;14.27;9.27;;;9.80;99.90;;;;;;4975616;28;20237;-76
2022/03/14 08:30:27;;;;;;;14.70;9.40;;;9.70;99.90;;;;;;4955697;28;20210;-76
2022/03/14 08:32:56;;;;;;;12.33;9.33;;;9.70;99.90;;;;;;4968301;28;20228;-76
2022/03/14 08:35:24;;;;;;;13.07;8.97;;;9.70;99.90;;;;;;4958917;28;20197;-76
2022/03/14 08:37:53;;;;;;;13.10;9.33;;;9.80;99.90;;;;;;4958894;28;20228;-76
2022/03/14 08:40:23;;;;;;;11.13;9.37;;;9.70;99.90;;;;;;4976371;28;20182;-76
2022/03/14 08:42:52;;;;;;;12.30;9.63;;;9.70;99.90;;;;;;4974985;28;20196;-76
2022/03/14 08:45:23;;;;;;;10.13;8.97;;;9.80;99.90;;;;;;4958972;28;20201;-76
2022/03/14 08:47:53;;;;;;;11.80;9.00;;;9.80;99.90;;;;;;4959342;28;20697;-76
2022/03/14 08:50:21;;;;;;;18.13;10.23;;;9.90;99.90;;;;;;4958505;28;20224;-76
2022/03/14 08:52:48;;;;;;;14.27;9.33;;;9.90;99.90;;;;;;4974487;28;20216;-76
2022/03/14 08:55:17;;;;;;;11.97;9.37;;;9.80;99.90;;;;;;4958549;28;20197;-76
2022/03/14 08:57:44;;;;;;;14.83;10.07;;;9.90;99.90;;;;;;4973633;28;20217;-76
2022/03/14 09:00:13;;;;;;;10.23;9.13;;;9.80;99.90;;;;;;4975879;28;20181;-76
2022/03/14 09:02:44;;;;;;;14.17;10.63;;;9.90;99.90;;;;;;4976091;28;20174;-76
2022/03/14 09:05:12;;;;;;;14.83;10.70;;;9.90;99.90;;;;;;4975878;28;20227;-76
2022/03/14 09:07:40;;;;;;;11.70;9.13;;;10.00;99.90;;;;;;4974469;28;20216;-76
2022/03/14 09:10:09;;;;;;;11.50;9.67;;;10.10;99.90;;;;;;4958404;28;20197;-76
2022/03/14 09:12:37;;;;;;;14.93;10.70;;;10.10;99.90;;;;;;4957810;28;20224;-76
2022/03/14 09:15:09;;;;;;;16.53;10.33;;;10.20;99.90;;;;;;4975565;28;20186;-76
2022/03/14 09:17:45;;;;;;;15.47;10.03;;;10.10;99.90;;;;;;4975484;28;20208;-76
2022/03/14 09:20:17;;;;;;;11.97;9.87;;;10.00;99.90;;;;;;4958068;28;20219;-76
2022/03/14 09:22:45;;;;;;;12.57;9.50;;;10.00;99.90;;;;;;4956266;29;20656;-76
2022/03/14 09:25:14;;;;;;;15.53;10.93;;;10.10;99.90;;;;;;4956179;29;20194;-76
2022/03/14 09:27:42;;;;;;;15.83;10.83;;;10.10;99.90;;;;;;4954449;28;20229;-76
2022/03/14 09:30:11;;;;;;;15.50;11.83;;;10.00;99.90;;;;;;4972241;28;20212;-76
2022/03/14 09:32:39;;;;;;;14.70;10.90;;;10.00;99.90;;;;;;4974189;28;20224;-76
2022/03/14 09:35:08;;;;;;;19.47;13.03;;;10.00;99.90;;;;;;4990559;28;20563;-76
2022/03/14 09:37:38;;;;;;;16.77;11.37;;;10.00;99.90;;;;;;4990359;28;20220;-76
2022/03/14 09:40:07;;;;;;;16.70;11.63;;;10.00;99.90;;;;;;4974423;28;20208;-76
2022/03/14 09:42:36;;;;;;;18.07;11.70;;;10.10;99.90;;;;;;4990084;28;20197;-76
2022/03/14 09:45:05;;;;;;;14.63;12.57;;;10.10;99.90;;;;;;4971157;28;20214;-76
2022/03/14 09:47:37;;;;;;;16.53;12.33;;;10.10;99.90;;;;;;4954345;28;20222;-76
2022/03/14 09:50:08;;;;;;;15.80;11.30;;;10.10;99.90;;;;;;4970805;28;20603;-76
2022/03/14 09:52:45;;;;;;;18.10;12.20;;;10.20;99.90;;;;;;4986775;28;20587;-76
2022/03/14 09:55:13;;;;;;;20.33;12.73;;;10.30;99.90;;;;;;4971648;28;20193;-76
2022/03/14 09:57:41;;;;;;;16.80;12.07;;;10.50;99.90;;;;;;4973528;28;20220;-76
2022/03/14 10:00:13;;;;;;;17.23;12.67;;;10.50;99.90;;;;;;4985479;28;20218;-76
2022/03/14 10:03:03;;;;;;;16.87;12.53;;;10.50;99.90;;;;;;4981113;28;20197;-76
2022/03/14 10:05:31;;;;;;;18.23;13.47;;;10.50;99.90;;;;;;4989750;28;20205;-75
2022/03/14 10:08:01;;;;;;;15.33;12.27;;;10.60;99.90;;;;;;4985529;28;20225;-76
2022/03/14 10:10:29;;;;;;;15.83;13.50;;;10.60;99.90;;;;;;4974528;28;20186;-76
2022/03/14 10:12:58;;;;;;;16.17;12.27;;;10.60;99.90;;;;;;4973203;28;20209;-76
2022/03/14 10:15:27;;;;;;;16.40;12.70;;;10.60;99.90;;;;;;4985300;28;20880;-76
2022/03/14 10:17:55;;;;;;;18.30;13.70;;;10.70;99.90;;;;;;4969384;28;20216;-76
2022/03/14 10:20:25;;;;;;;17.97;12.73;;;10.70;99.90;;;;;;4969109;28;20201;-80
2022/03/14 10:23:33;;;;;;;16.50;12.90;;;10.60;99.90;;;;;;4972281;28;20201;-76
2022/03/14 10:26:05;;;;;;;18.10;13.17;;;10.60;99.90;;;;;;4969964;28;20198;-77
2022/03/14 10:28:35;;;;;;;20.20;14.33;;;10.60;99.90;;;;;;4973088;28;20586;-76
2022/03/14 10:31:03;;;;;;;19.43;13.83;;;10.50;99.90;;;;;;4984857;28;20679;-77
2022/03/14 10:33:32;;;;;;;18.47;13.23;;;10.50;99.90;;;;;;4987390;28;20224;-77
2022/03/14 10:36:00;;;;;;;16.30;12.00;;;10.60;99.90;;;;;;4991793;28;20677;-77
2022/03/14 10:38:29;;;;;;;16.97;12.10;;;10.60;99.90;;;;;;4974740;28;20223;-77
2022/03/14 10:40:57;;;;;;;14.03;11.03;;;10.60;99.90;;;;;;4971165;28;20693;-77
2022/03/14 10:43:28;;;;;;;15.53;11.43;;;10.60;99.90;;;;;;4983636;28;20220;-77
2022/03/14 10:45:56;;;;;;;15.33;11.97;;;10.60;99.90;;;;;;4992986;28;20214;-77
2022/03/14 10:48:35;;;;;;;16.13;11.57;;;10.50;99.90;;;;;;4973496;28;20224;-76
2022/03/14 10:51:05;;;;;;;16.33;12.37;;;10.40;99.90;;;;;;4989167;28;20193;-77
2022/03/14 10:53:34;;;;;;;16.13;11.20;;;10.40;99.90;;;;;;4982382;28;20221;-77
2022/03/14 10:56:03;;;;;;;14.13;10.37;;;10.40;99.90;;;;;;5003855;28;20231;-77
2022/03/14 10:58:36;;;;;;;15.43;11.33;;;10.40;99.90;;;;;;4988731;28;20212;-75
2022/03/14 11:01:17;;;;;;;17.97;11.20;;;10.40;99.90;;;;;;4993675;28;20196;-75
2022/03/14 11:03:46;;;;;;;10.90;8.33;;;10.50;99.90;;;;;;4994151;28;20192;-75
2022/03/14 11:06:16;;;;;;;9.87;7.53;;;10.60;99.90;;;;;;4991006;28;20203;-75
2022/03/14 11:08:45;;;;;;;12.27;9.17;;;10.80;99.90;;;;;;4972749;28;20222;-75
2022/03/14 11:11:15;;;;;;;10.77;8.57;;;10.60;99.90;;;;;;4976520;28;20204;-76
2022/03/14 11:13:45;;;;;;;8.97;7.67;;;10.80;99.90;;;;;;4990569;28;20212;-76
2022/03/14 11:16:13;;;;;;;11.80;7.30;;;10.90;99.90;;;;;;4989850;28;20204;-75
2022/03/14 11:18:42;;;;;;;12.63;8.43;;;10.90;99.90;;;;;;4975709;28;20220;-75
2022/03/14 11:21:11;;;;;;;14.83;8.33;;;10.90;99.90;;;;;;4986810;28;20208;-75
2022/03/14 11:23:39;;;;;;;10.40;8.80;;;10.90;99.90;;;;;;4998987;28;20192;-76
2022/03/14 11:26:09;;;;;;;14.03;9.77;;;10.90;99.90;;;;;;4998569;28;20567;-75
2022/03/14 11:28:39;;;;;;;13.47;9.27;;;11.00;99.90;;;;;;4977514;28;20232;-76
2022/03/14 11:31:10;;;;;;;14.30;9.50;;;11.30;99.90;;;;;;4994737;28;20196;-76
2022/03/14 11:33:38;;;;;;;9.77;8.50;;;11.40;99.90;;;;;;4998245;28;20709;-76
2022/03/14 11:36:06;;;;;;;16.37;10.13;;;11.20;99.90;;;;;;5005265;28;20198;-76
2022/03/14 11:38:35;;;;;;;14.13;10.07;;;11.20;99.90;;;;;;5002084;28;20207;-75
2022/03/14 11:41:03;;;;;;;13.60;10.20;;;11.50;99.90;;;;;;4988329;28;20196;-75
2022/03/14 11:43:31;;;;;;;13.68;10.27;;;11.70;99.90;;;;;;4994698;28;20192;-76
2022/03/14 11:46:00;;;;;;;11.93;10.20;;;11.90;99.90;;;;;;4983736;28;20203;-76
2022/03/14 11:48:32;;;;;;;11.80;9.40;;;12.00;99.90;;;;;;4987126;28;20219;-76
2022/03/14 11:51:02;;;;;;;11.60;8.25;;;11.90;99.90;;;;;;4998461;28;20195;-75
2022/03/14 11:53:32;;;;;;;11.18;8.48;;;12.00;99.90;;;;;;5013023;28;20204;-75
2022/03/14 11:56:02;;;;;;;15.02;9.30;;;12.00;99.90;;;;;;4997878;28;20204;-75
2022/03/14 11:58:34;;;;;;;12.93;9.55;;;11.90;99.90;;;;;;4985449;28;20720;-75
2022/03/14 12:01:21;;;;;;;11.63;10.32;;;11.90;99.90;;;;;;4998188;28;20196;-75
2022/03/14 12:03:52;;;;;;;10.88;9.30;;;11.90;99.90;;;;;;4982663;28;20292;-75
2022/03/14 12:06:59;;;;;;;12.05;8.52;;;11.80;99.90;;;;;;5012971;28;20212;-75
2022/03/14 12:09:49;;;;;;;10.57;9.48;;;11.90;99.90;;;;;;4993093;28;20196;-77
2022/03/14 12:12:29;;;;;;;9.90;7.55;;;11.90;99.90;;;;;;4977026;28;20543;-76
2022/03/14 12:14:59;;;;;;;8.50;7.50;;;11.90;99.90;;;;;;4994355;28;20223;-76
2022/03/14 12:17:28;;;;;;;10.07;7.75;;;11.90;99.90;;;;;;4979185;28;20227;-76
2022/03/14 12:19:58;;;;;;;10.55;8.70;;;11.90;99.90;;;;;;4998654;28;20188;-76
2022/03/14 12:22:46;;;;;;;17.52;8.30;;;12.00;99.90;;;;;;4997715;28;20211;-76
2022/03/14 12:25:39;;;;;;;10.85;7.70;;;12.00;99.90;;;;;;4997635;28;20647;-76
2022/03/14 12:28:30;;;;;;;12.45;7.18;;;12.20;99.90;;;;;;4980552;28;20228;-76
2022/03/14 12:31:00;;;;;;;10.82;6.50;;;12.20;99.90;;;;;;4976749;28;20192;-76
2022/03/14 12:33:32;;;;;;;8.20;6.93;;;12.10;99.90;;;;;;4990992;28;20205;-76
2022/03/14 12:36:32;;;;;;;10.77;6.45;;;12.20;99.90;;;;;;5007675;28;20205;-76
2022/03/14 12:39:27;;;;;;;8.82;6.43;;;12.10;99.90;;;;;;4974596;28;20221;-76
2022/03/14 12:42:21;;;;;;;12.77;7.88;;;12.10;99.90;;;;;;4974998;28;20559;-76
2022/03/14 12:45:16;;;;;;;11.63;8.20;;;12.00;99.90;;;;;;4991177;28;20205;-76
2022/03/14 12:47:50;;;;;;;13.70;8.82;;;12.00;99.90;;;;;;4955636;28;20229;-76
2022/03/14 12:50:44;;;;;;;11.50;7.28;;;12.00;99.90;;;;;;4955816;29;20205;-76
2022/03/14 12:53:15;;;;;;;12.35;7.72;;;12.00;99.90;;;;;;4956820;29;20182;-76
2022/03/14 12:55:47;;;;;;;12.10;7.05;;;11.80;99.90;;;;;;4955335;29;20303;-76
2022/03/14 13:02:04;;;;;;;10.03;6.53;;;11.80;99.90;;;;;;4979059;28;20181;-76